createdAt,value
2018-11-13T00:00:19.335Z,1014.10
2018-11-13T00:01:19.331Z,1014.12
2018-11-13T00:02:19.329Z,1014.08
2018-11-13T00:03:19.325Z,1014.14
2018-11-13T00:04:19.320Z,1014.19
2018-11-13T00:05:19.314Z,1014.22
2018-11-13T00:06:19.308Z,1014.16
2018-11-13T00:07:19.309Z,1014.14
2018-11-13T00:08:19.309Z,1014.07
2018-11-13T00:09:19.299Z,1014.07
2018-11-13T00:10:19.295Z,1014.01
2018-11-13T00:11:19.302Z,1014.00
2018-11-13T00:12:19.291Z,1014.05
2018-11-13T00:13:19.287Z,1014.11
2018-11-13T00:14:19.280Z,1014.16
2018-11-13T00:15:19.277Z,1014.18
2018-11-13T00:16:19.268Z,1014.23
2018-11-13T00:17:19.276Z,1014.25
2018-11-13T00:18:19.266Z,1014.26
2018-11-13T00:19:19.259Z,1014.26
2018-11-13T00:20:19.254Z,1014.30
2018-11-13T00:21:19.248Z,1014.27
2018-11-13T00:22:19.248Z,1014.25
2018-11-13T00:23:19.242Z,1014.23
2018-11-13T00:24:19.239Z,1014.27
2018-11-13T00:25:19.239Z,1014.31
2018-11-13T00:26:19.232Z,1014.36
2018-11-13T00:27:19.263Z,1014.38
2018-11-13T00:28:19.224Z,1014.40
2018-11-13T00:29:19.259Z,1014.38
2018-11-13T00:30:19.214Z,1014.33
2018-11-13T00:31:19.212Z,1014.35
2018-11-13T00:32:19.208Z,1014.32
2018-11-13T00:33:19.202Z,1014.36
2018-11-13T00:34:19.197Z,1014.36
2018-11-13T00:35:19.192Z,1014.39
2018-11-13T00:36:19.190Z,1014.46
2018-11-13T00:37:19.190Z,1014.53
2018-11-13T00:38:19.184Z,1014.55
2018-11-13T00:39:19.567Z,1014.54
2018-11-13T00:40:19.391Z,1014.55
2018-11-13T00:41:19.166Z,1014.54
2018-11-13T00:42:19.173Z,1014.54
2018-11-13T00:43:19.163Z,1014.51
2018-11-13T00:44:19.157Z,1014.49
2018-11-13T00:45:19.261Z,1014.46
2018-11-13T00:46:19.152Z,1014.48
2018-11-13T00:47:19.149Z,1014.45
2018-11-13T00:48:19.190Z,1014.46
2018-11-13T00:49:19.135Z,1014.48
2018-11-13T00:50:19.134Z,1014.44
2018-11-13T00:51:19.128Z,1014.47
2018-11-13T00:52:19.132Z,1014.52
2018-11-13T00:53:19.125Z,1014.47
2018-11-13T00:54:19.118Z,1014.53
2018-11-13T00:55:19.114Z,1014.53
2018-11-13T00:56:19.110Z,1014.52
2018-11-13T00:57:19.109Z,1014.51
2018-11-13T00:58:19.099Z,1014.43
2018-11-13T00:59:19.171Z,1014.43
2018-11-13T01:00:19.140Z,1014.39
2018-11-13T01:01:19.092Z,1014.35
2018-11-13T01:02:19.088Z,1014.30
2018-11-13T01:03:19.082Z,1014.31
2018-11-13T01:04:19.076Z,1014.32
2018-11-13T01:05:19.100Z,1014.30
2018-11-13T01:06:19.066Z,1014.34
2018-11-13T01:07:19.067Z,1014.35
2018-11-13T01:08:19.062Z,1014.31
2018-11-13T01:09:19.061Z,1014.25
2018-11-13T01:10:19.059Z,1014.23
2018-11-13T01:11:19.046Z,1014.25
2018-11-13T01:12:19.048Z,1014.21
2018-11-13T01:13:19.043Z,1014.19
2018-11-13T01:14:19.040Z,1014.15
2018-11-13T01:15:19.035Z,1014.18
2018-11-13T01:16:19.033Z,1014.21
2018-11-13T01:17:19.046Z,1014.24
2018-11-13T01:18:19.585Z,1014.27
2018-11-13T01:19:19.019Z,1014.29
2018-11-13T01:20:19.014Z,1014.30
2018-11-13T01:21:19.010Z,1014.27
2018-11-13T01:22:19.011Z,1014.31
2018-11-13T01:23:19.003Z,1014.36
2018-11-13T01:24:19.371Z,1014.40
2018-11-13T01:25:18.994Z,1014.43
2018-11-13T01:26:18.993Z,1014.40
2018-11-13T01:27:18.991Z,1014.43
2018-11-13T01:28:18.981Z,1014.39
2018-11-13T01:29:18.985Z,1014.45
2018-11-13T01:30:18.974Z,1014.46
2018-11-13T01:31:18.966Z,1014.55
2018-11-13T01:32:18.967Z,1014.57
2018-11-13T01:33:18.978Z,1014.61
2018-11-13T01:34:18.955Z,1014.69
2018-11-13T01:35:18.961Z,1014.73
2018-11-13T01:36:18.952Z,1014.77
2018-11-13T01:37:18.947Z,1014.73
2018-11-13T01:38:18.941Z,1014.71
2018-11-13T01:39:18.943Z,1014.74
2018-11-13T01:40:18.934Z,1014.76
2018-11-13T01:41:18.929Z,1014.76
2018-11-13T01:42:18.928Z,1014.72
2018-11-13T01:43:18.922Z,1014.71
2018-11-13T01:44:18.917Z,1014.68
2018-11-13T01:45:18.918Z,1014.70
2018-11-13T01:46:18.913Z,1014.70
2018-11-13T01:47:18.907Z,1014.71
2018-11-13T01:48:19.593Z,1014.77
2018-11-13T01:49:18.900Z,1014.83
2018-11-13T01:50:18.894Z,1014.83
2018-11-13T01:51:18.885Z,1014.86
2018-11-13T01:52:18.886Z,1014.91
2018-11-13T01:53:18.883Z,1014.97
2018-11-13T01:54:18.932Z,1014.94
2018-11-13T01:55:18.874Z,1014.96
2018-11-13T01:56:18.870Z,1014.99
2018-11-13T01:57:18.869Z,1015.04
2018-11-13T01:58:18.863Z,1015.02
2018-11-13T01:59:18.858Z,1014.97
2018-11-13T02:00:18.864Z,1015.01
2018-11-13T02:01:18.850Z,1015.03
2018-11-13T02:02:18.852Z,1015.00
2018-11-13T02:03:18.835Z,1015.00
2018-11-13T02:04:18.834Z,1015.00
2018-11-13T02:05:18.836Z,1014.95
2018-11-13T02:06:18.824Z,1014.97
2018-11-13T02:07:18.829Z,1015.01
2018-11-13T02:08:18.819Z,1014.99
2018-11-13T02:09:18.815Z,1015.01
2018-11-13T02:10:18.810Z,1014.97
2018-11-13T02:11:18.806Z,1014.94
2018-11-13T02:12:18.801Z,1014.93
2018-11-13T02:13:18.799Z,1014.89
2018-11-13T02:14:18.793Z,1014.82
2018-11-13T02:15:18.789Z,1014.76
2018-11-13T02:16:18.789Z,1014.77
2018-11-13T02:17:18.780Z,1014.72
2018-11-13T02:18:18.772Z,1014.72
2018-11-13T02:19:18.774Z,1014.72
2018-11-13T02:20:18.770Z,1014.73
2018-11-13T02:21:18.769Z,1014.71
2018-11-13T02:22:18.764Z,1014.70
2018-11-13T02:23:18.754Z,1014.70
2018-11-13T02:24:18.750Z,1014.72
2018-11-13T02:25:18.747Z,1014.72
2018-11-13T02:26:18.748Z,1014.70
2018-11-13T02:27:18.741Z,1014.74
2018-11-13T02:28:18.737Z,1014.78
2018-11-13T02:29:18.729Z,1014.79
2018-11-13T02:30:18.726Z,1014.79
2018-11-13T02:31:18.731Z,1014.80
2018-11-13T02:32:18.727Z,1014.82
2018-11-13T02:33:18.713Z,1014.90
2018-11-13T02:34:18.713Z,1014.86
2018-11-13T02:35:18.722Z,1014.86
2018-11-13T02:36:18.703Z,1014.85
2018-11-13T02:37:18.713Z,1014.90
2018-11-13T02:38:18.691Z,1014.86
2018-11-13T02:39:18.696Z,1014.82
2018-11-13T02:40:18.702Z,1014.90
2018-11-13T02:41:18.682Z,1014.90
2018-11-13T02:42:18.675Z,1014.87
2018-11-13T02:43:18.676Z,1014.82
2018-11-13T02:44:18.671Z,1014.87
2018-11-13T02:45:18.665Z,1014.84
2018-11-13T02:46:18.661Z,1014.86
2018-11-13T02:47:18.666Z,1014.84
2018-11-13T02:48:18.653Z,1014.82
2018-11-13T02:49:18.646Z,1014.87
2018-11-13T02:50:18.642Z,1014.88
2018-11-13T02:51:18.644Z,1014.85
2018-11-13T02:52:18.637Z,1014.80
2018-11-13T02:53:33.185Z,1014.73
2018-11-13T02:54:18.626Z,1014.72
2018-11-13T02:55:18.622Z,1014.69
2018-11-13T02:56:18.621Z,1014.65
2018-11-13T02:57:18.615Z,1014.59
2018-11-13T02:58:18.609Z,1014.61
2018-11-13T02:59:18.604Z,1014.63
2018-11-13T03:00:18.600Z,1014.63
2018-11-13T03:01:18.593Z,1014.68
2018-11-13T03:02:18.590Z,1014.69
2018-11-13T03:03:18.586Z,1014.75
2018-11-13T03:04:18.588Z,1014.81
2018-11-13T03:05:18.584Z,1014.81
2018-11-13T03:06:18.581Z,1014.81
2018-11-13T03:07:18.575Z,1014.81
2018-11-13T03:08:18.565Z,1014.82
2018-11-13T03:09:18.563Z,1014.79
2018-11-13T03:10:18.566Z,1014.82
2018-11-13T03:11:18.557Z,1014.81
2018-11-13T03:12:18.546Z,1014.83
2018-11-13T03:13:18.546Z,1014.87
2018-11-13T03:14:18.548Z,1014.94
2018-11-13T03:15:18.534Z,1015.04
2018-11-13T03:16:18.540Z,1015.12
2018-11-13T03:17:18.525Z,1015.17
2018-11-13T03:18:18.526Z,1015.19
2018-11-13T03:19:18.518Z,1015.19
2018-11-13T03:20:18.512Z,1015.19
2018-11-13T03:21:18.511Z,1015.24
2018-11-13T03:22:18.507Z,1015.23
2018-11-13T03:23:18.509Z,1015.31
2018-11-13T03:24:18.500Z,1015.24
2018-11-13T03:25:18.502Z,1015.22
2018-11-13T03:26:18.491Z,1015.07
2018-11-13T03:27:18.488Z,1014.94
2018-11-13T03:28:18.481Z,1014.82
2018-11-13T03:29:18.478Z,1014.83
2018-11-13T03:30:18.481Z,1014.83
2018-11-13T03:31:18.476Z,1014.87
2018-11-13T03:32:18.465Z,1014.92
2018-11-13T03:33:18.459Z,1014.92
2018-11-13T03:34:18.458Z,1014.95
2018-11-13T03:35:18.458Z,1015.03
2018-11-13T03:36:18.450Z,1015.04
2018-11-13T03:37:18.442Z,1015.05
2018-11-13T03:38:18.440Z,1015.05
2018-11-13T03:39:18.436Z,1015.02
2018-11-13T03:40:18.431Z,1015.03
2018-11-13T03:41:18.427Z,1015.04
2018-11-13T03:42:18.424Z,1015.06
2018-11-13T03:43:18.424Z,1015.03
2018-11-13T03:44:18.413Z,1015.02
2018-11-13T03:45:18.409Z,1015.01
2018-11-13T03:46:18.403Z,1015.03
2018-11-13T03:47:18.402Z,1015.03
2018-11-13T03:48:18.403Z,1015.05
2018-11-13T03:49:18.391Z,1015.13
2018-11-13T03:50:18.390Z,1015.14
2018-11-13T03:51:18.387Z,1015.20
2018-11-13T03:52:18.380Z,1015.20
2018-11-13T03:53:18.373Z,1015.22
2018-11-13T03:54:18.369Z,1015.20
2018-11-13T03:55:18.372Z,1015.17
2018-11-13T03:56:18.366Z,1015.09
2018-11-13T03:57:18.355Z,1014.96
2018-11-13T03:58:18.356Z,1014.91
2018-11-13T03:59:18.347Z,1014.92
2018-11-13T04:00:18.349Z,1014.92
2018-11-13T04:01:18.343Z,1014.89
2018-11-13T04:02:18.338Z,1014.92
2018-11-13T04:03:18.337Z,1014.95
2018-11-13T04:04:18.328Z,1014.95
2018-11-13T04:05:18.332Z,1014.93
2018-11-13T04:06:18.333Z,1014.94
2018-11-13T04:07:18.318Z,1014.95
2018-11-13T04:08:18.319Z,1014.99
2018-11-13T04:09:18.309Z,1015.04
2018-11-13T04:10:18.310Z,1015.04
2018-11-13T04:11:18.301Z,1015.03
2018-11-13T04:12:18.298Z,1015.08
2018-11-13T04:13:18.296Z,1015.12
2018-11-13T04:14:18.292Z,1015.13
2018-11-13T04:15:18.290Z,1015.18
2018-11-13T04:16:18.279Z,1015.14
2018-11-13T04:17:18.275Z,1015.06
2018-11-13T04:18:18.273Z,1014.91
2018-11-13T04:19:18.268Z,1014.79
2018-11-13T04:20:18.270Z,1014.81
2018-11-13T04:21:18.257Z,1014.87
2018-11-13T04:22:18.256Z,1014.87
2018-11-13T04:23:18.250Z,1014.87
2018-11-13T04:24:18.249Z,1014.86
2018-11-13T04:25:18.256Z,1014.85
2018-11-13T04:26:18.254Z,1014.86
2018-11-13T04:27:18.238Z,1014.89
2018-11-13T04:28:18.232Z,1014.88
2018-11-13T04:29:18.225Z,1014.88
2018-11-13T04:30:18.228Z,1014.95
2018-11-13T04:31:18.219Z,1014.93
2018-11-13T04:32:18.218Z,1014.89
2018-11-13T04:33:18.207Z,1014.90
2018-11-13T04:34:18.208Z,1014.90
2018-11-13T04:35:18.204Z,1014.89
2018-11-13T04:36:18.197Z,1014.91
2018-11-13T04:37:18.192Z,1014.97
2018-11-13T04:38:18.196Z,1015.03
2018-11-13T04:39:18.187Z,1014.99
2018-11-13T04:40:18.187Z,1015.01
2018-11-13T04:41:18.639Z,1015.03
2018-11-13T04:42:18.240Z,1015.05
2018-11-13T04:43:18.711Z,1015.09
2018-11-13T04:44:18.164Z,1015.11
2018-11-13T04:45:18.172Z,1015.15
2018-11-13T04:46:18.155Z,1015.15
2018-11-13T04:47:18.149Z,1015.17
2018-11-13T04:48:18.147Z,1015.14
2018-11-13T04:49:18.142Z,1015.11
2018-11-13T04:50:18.139Z,1015.08
2018-11-13T04:51:18.195Z,1015.05
2018-11-13T04:52:18.130Z,1015.01
2018-11-13T04:53:18.126Z,1014.92
2018-11-13T04:54:18.119Z,1014.89
2018-11-13T04:55:18.118Z,1014.91
2018-11-13T04:56:18.115Z,1014.95
2018-11-13T04:57:18.112Z,1014.96
2018-11-13T04:58:18.103Z,1014.92
2018-11-13T04:59:18.644Z,1014.92
2018-11-13T05:00:18.099Z,1014.90
2018-11-13T05:01:18.093Z,1014.87
2018-11-13T05:02:18.090Z,1014.90
2018-11-13T05:03:18.089Z,1014.94
2018-11-13T05:04:18.084Z,1014.96
2018-11-13T05:05:18.079Z,1015.00
2018-11-13T05:06:18.073Z,1015.03
2018-11-13T05:07:18.074Z,1015.04
2018-11-13T05:08:18.063Z,1015.00
2018-11-13T05:09:18.062Z,1015.03
2018-11-13T05:10:18.187Z,1015.05
2018-11-13T05:11:18.055Z,1015.02
2018-11-13T05:12:18.049Z,1015.02
2018-11-13T05:13:18.042Z,1015.08
2018-11-13T05:14:18.038Z,1015.11
2018-11-13T05:15:18.033Z,1015.11
2018-11-13T05:16:18.035Z,1015.10
2018-11-13T05:17:18.028Z,1015.12
2018-11-13T05:18:18.022Z,1015.10
2018-11-13T05:19:18.031Z,1015.10
2018-11-13T05:20:18.015Z,1015.05
2018-11-13T05:21:18.011Z,1015.04
2018-11-13T05:22:18.005Z,1015.06
2018-11-13T05:23:18.076Z,1015.09
2018-11-13T05:24:18.000Z,1015.10
2018-11-13T05:25:17.997Z,1015.11
2018-11-13T05:26:17.990Z,1015.14
2018-11-13T05:27:17.985Z,1015.11
2018-11-13T05:28:17.983Z,1015.13
2018-11-13T05:29:17.983Z,1015.13
2018-11-13T05:30:17.970Z,1015.13
2018-11-13T05:31:17.970Z,1015.11
2018-11-13T05:32:17.965Z,1015.13
2018-11-13T05:33:17.970Z,1015.13
2018-11-13T05:34:17.968Z,1015.17
2018-11-13T05:35:17.960Z,1015.12
2018-11-13T05:36:17.961Z,1015.16
2018-11-13T05:37:17.955Z,1015.15
2018-11-13T05:38:17.948Z,1015.17
2018-11-13T05:39:17.943Z,1015.23
2018-11-13T05:40:17.933Z,1015.27
2018-11-13T05:41:17.931Z,1015.27
2018-11-13T05:42:17.929Z,1015.27
2018-11-13T05:43:17.923Z,1015.26
2018-11-13T05:44:17.924Z,1015.26
2018-11-13T05:45:17.913Z,1015.25
2018-11-13T05:46:17.909Z,1015.27
2018-11-13T05:47:18.041Z,1015.33
2018-11-13T05:48:17.901Z,1015.35
2018-11-13T05:49:17.901Z,1015.33
2018-11-13T05:50:17.891Z,1015.32
2018-11-13T05:51:17.890Z,1015.30
2018-11-13T05:52:17.885Z,1015.33
2018-11-13T05:53:17.881Z,1015.32
2018-11-13T05:54:17.878Z,1015.28
2018-11-13T05:55:17.878Z,1015.29
2018-11-13T05:56:17.869Z,1015.30
2018-11-13T05:57:17.867Z,1015.27
2018-11-13T05:58:17.861Z,1015.27
2018-11-13T05:59:17.856Z,1015.25
2018-11-13T06:00:17.856Z,1015.28
2018-11-13T06:01:17.849Z,1015.28
2018-11-13T06:02:17.845Z,1015.28
2018-11-13T06:03:17.838Z,1015.22
2018-11-13T06:04:17.844Z,1015.19
2018-11-13T06:05:17.837Z,1015.21
2018-11-13T06:06:17.832Z,1015.25
2018-11-13T06:07:17.830Z,1015.24
2018-11-13T06:08:17.821Z,1015.24
2018-11-13T06:09:17.826Z,1015.25
2018-11-13T06:10:17.816Z,1015.25
2018-11-13T06:11:17.811Z,1015.20
2018-11-13T06:12:17.803Z,1015.16
2018-11-13T06:13:17.799Z,1015.16
2018-11-13T06:14:17.963Z,1015.19
2018-11-13T06:15:17.791Z,1015.22
2018-11-13T06:16:17.788Z,1015.23
2018-11-13T06:17:17.782Z,1015.25
2018-11-13T06:18:17.789Z,1015.28
2018-11-13T06:19:17.772Z,1015.31
2018-11-13T06:20:17.771Z,1015.31
2018-11-13T06:21:17.766Z,1015.37
2018-11-13T06:22:17.764Z,1015.45
2018-11-13T06:23:17.756Z,1015.51
2018-11-13T06:24:17.762Z,1015.60
2018-11-13T06:25:17.756Z,1015.64
2018-11-13T06:26:17.746Z,1015.72
2018-11-13T06:27:17.742Z,1015.78
2018-11-13T06:28:17.740Z,1015.74
2018-11-13T06:29:17.733Z,1015.73
2018-11-13T06:30:17.732Z,1015.72
2018-11-13T06:31:17.727Z,1015.68
2018-11-13T06:32:17.724Z,1015.71
2018-11-13T06:33:17.716Z,1015.68
2018-11-13T06:34:17.724Z,1015.71
2018-11-13T06:35:17.709Z,1015.70
2018-11-13T06:36:17.706Z,1015.68
2018-11-13T06:37:17.704Z,1015.66
2018-11-13T06:38:17.696Z,1015.63
2018-11-13T06:39:17.692Z,1015.63
2018-11-13T06:40:17.688Z,1015.68
2018-11-13T06:41:17.686Z,1015.74
2018-11-13T06:42:17.677Z,1015.75
2018-11-13T06:43:17.677Z,1015.79
2018-11-13T06:44:17.683Z,1015.79
2018-11-13T06:45:17.665Z,1015.85
2018-11-13T06:46:17.661Z,1015.81
2018-11-13T06:47:17.659Z,1015.81
2018-11-13T06:48:17.655Z,1015.74
2018-11-13T06:49:17.653Z,1015.73
2018-11-13T06:50:17.646Z,1015.73
2018-11-13T06:51:17.649Z,1015.77
2018-11-13T06:52:17.640Z,1015.74
2018-11-13T06:53:17.640Z,1015.78
2018-11-13T06:54:17.640Z,1015.77
2018-11-13T06:55:17.628Z,1015.80
2018-11-13T06:56:17.631Z,1015.81
2018-11-13T06:57:17.616Z,1015.82
2018-11-13T06:58:18.250Z,1015.82
2018-11-13T06:59:17.609Z,1015.87
2018-11-13T07:00:18.248Z,1015.82
2018-11-13T07:01:17.601Z,1015.88
2018-11-13T07:02:17.593Z,1015.88
2018-11-13T07:03:17.595Z,1015.92
2018-11-13T07:04:17.600Z,1015.92
2018-11-13T07:05:17.581Z,1015.92
2018-11-13T07:06:17.579Z,1015.88
2018-11-13T07:07:17.585Z,1015.85
2018-11-13T07:08:17.573Z,1015.82
2018-11-13T07:09:17.570Z,1015.78
2018-11-13T07:10:17.564Z,1015.78
2018-11-13T07:11:17.620Z,1015.80
2018-11-13T07:12:17.557Z,1015.79
2018-11-13T07:13:17.554Z,1015.79
2018-11-13T07:14:17.545Z,1015.82
2018-11-13T07:15:17.540Z,1015.81
2018-11-13T07:16:17.537Z,1015.83
2018-11-13T07:17:17.529Z,1015.87
2018-11-13T07:18:17.580Z,1015.88
2018-11-13T07:19:17.527Z,1015.86
2018-11-13T07:20:17.521Z,1015.85
2018-11-13T07:21:17.649Z,1015.84
2018-11-13T07:22:17.512Z,1015.84
2018-11-13T07:23:17.514Z,1015.82
2018-11-13T07:24:17.502Z,1015.82
2018-11-13T07:25:17.564Z,1015.86
2018-11-13T07:26:17.500Z,1015.89
2018-11-13T07:27:17.515Z,1015.94
2018-11-13T07:28:17.493Z,1015.92
2018-11-13T07:29:17.485Z,1015.93
2018-11-13T07:30:17.480Z,1015.95
2018-11-13T07:31:17.509Z,1016.01
2018-11-13T07:32:17.469Z,1016.07
2018-11-13T07:33:17.479Z,1016.08
2018-11-13T07:34:17.482Z,1016.10
2018-11-13T07:35:17.460Z,1016.12
2018-11-13T07:36:17.457Z,1016.10
2018-11-13T07:37:17.454Z,1016.07
2018-11-13T07:38:17.452Z,1016.10
2018-11-13T07:39:17.441Z,1016.11
2018-11-13T07:40:17.440Z,1016.12
2018-11-13T07:41:17.561Z,1016.15
2018-11-13T07:42:17.430Z,1016.21
2018-11-13T07:43:17.431Z,1016.25
2018-11-13T07:44:17.429Z,1016.29
2018-11-13T07:45:17.420Z,1016.35
2018-11-13T07:46:17.415Z,1016.33
2018-11-13T07:47:17.526Z,1016.33
2018-11-13T07:48:17.416Z,1016.33
2018-11-13T07:49:17.401Z,1016.34
2018-11-13T07:50:17.398Z,1016.33
2018-11-13T07:51:17.552Z,1016.35
2018-11-13T07:52:17.394Z,1016.30
2018-11-13T07:53:17.393Z,1016.32
2018-11-13T07:54:17.381Z,1016.36
2018-11-13T07:55:17.393Z,1016.37
2018-11-13T07:56:17.382Z,1016.37
2018-11-13T07:57:17.376Z,1016.37
2018-11-13T07:58:17.367Z,1016.40
2018-11-13T07:59:17.363Z,1016.45
2018-11-13T08:00:17.358Z,1016.51
2018-11-13T08:01:17.390Z,1016.51
2018-11-13T08:02:17.347Z,1016.51
2018-11-13T08:03:17.365Z,1016.52
2018-11-13T08:04:17.388Z,1016.53
2018-11-13T08:05:17.341Z,1016.50
2018-11-13T08:06:17.363Z,1016.45
2018-11-13T08:07:17.362Z,1016.49
2018-11-13T08:08:17.333Z,1016.44
2018-11-13T08:09:17.376Z,1016.42
2018-11-13T08:10:17.316Z,1016.43
2018-11-13T08:11:17.317Z,1016.44
2018-11-13T08:12:17.311Z,1016.43
2018-11-13T08:13:17.470Z,1016.43
2018-11-13T08:14:17.303Z,1016.41
2018-11-13T08:15:17.300Z,1016.47
2018-11-13T08:16:17.292Z,1016.43
2018-11-13T08:17:17.289Z,1016.45
2018-11-13T08:18:17.303Z,1016.45
2018-11-13T08:19:17.287Z,1016.49
2018-11-13T08:20:17.279Z,1016.50
2018-11-13T08:21:17.275Z,1016.55
2018-11-13T08:22:17.352Z,1016.57
2018-11-13T08:23:17.267Z,1016.57
2018-11-13T08:24:17.271Z,1016.60
2018-11-13T08:25:17.309Z,1016.57
2018-11-13T08:26:17.279Z,1016.54
2018-11-13T08:27:17.248Z,1016.56
2018-11-13T08:28:17.334Z,1016.51
2018-11-13T08:29:17.331Z,1016.55
2018-11-13T08:30:17.240Z,1016.56
2018-11-13T08:31:17.277Z,1016.59
2018-11-13T08:32:17.234Z,1016.59
2018-11-13T08:33:17.268Z,1016.58
2018-11-13T08:34:17.228Z,1016.58
2018-11-13T08:35:17.226Z,1016.57
2018-11-13T08:36:17.273Z,1016.60
2018-11-13T08:37:17.214Z,1016.60
2018-11-13T08:38:17.212Z,1016.57
2018-11-13T08:39:17.209Z,1016.58
2018-11-13T08:40:18.390Z,1016.59
2018-11-13T08:41:17.197Z,1016.57
2018-11-13T08:42:17.193Z,1016.52
2018-11-13T08:43:17.193Z,1016.58
2018-11-13T08:44:17.263Z,1016.54
2018-11-13T08:45:17.184Z,1016.55
2018-11-13T08:46:17.180Z,1016.57
2018-11-13T08:47:17.177Z,1016.54
2018-11-13T08:48:17.180Z,1016.55
2018-11-13T08:49:17.165Z,1016.50
2018-11-13T08:50:17.245Z,1016.48
2018-11-13T08:51:17.162Z,1016.44
2018-11-13T08:52:17.156Z,1016.46
2018-11-13T08:53:17.155Z,1016.52
2018-11-13T08:54:17.157Z,1016.56
2018-11-13T08:55:17.144Z,1016.61
2018-11-13T08:56:17.145Z,1016.62
2018-11-13T08:57:17.136Z,1016.56
2018-11-13T08:58:17.194Z,1016.58
2018-11-13T08:59:17.272Z,1016.55
2018-11-13T09:00:17.124Z,1016.58
2018-11-13T09:01:17.124Z,1016.60
2018-11-13T09:02:17.120Z,1016.58
2018-11-13T09:03:17.113Z,1016.60
2018-11-13T09:04:17.111Z,1016.63
2018-11-13T09:05:17.221Z,1016.70
2018-11-13T09:06:17.102Z,1016.73
2018-11-13T09:07:17.099Z,1016.79
2018-11-13T09:08:17.091Z,1016.77
2018-11-13T09:09:17.089Z,1016.77
2018-11-13T09:10:17.089Z,1016.77
2018-11-13T09:11:17.131Z,1016.73
2018-11-13T09:12:17.103Z,1016.80
2018-11-13T09:13:17.075Z,1016.76
2018-11-13T09:14:17.077Z,1016.79
2018-11-13T09:15:17.072Z,1016.84
2018-11-13T09:16:17.066Z,1016.84
2018-11-13T09:17:17.062Z,1016.87
2018-11-13T09:18:17.055Z,1016.87
2018-11-13T09:19:17.252Z,1016.87
2018-11-13T09:20:17.052Z,1016.89
2018-11-13T09:21:17.043Z,1016.91
2018-11-13T09:22:17.044Z,1016.92
2018-11-13T09:23:17.034Z,1016.93
2018-11-13T09:24:17.038Z,1016.90
2018-11-13T09:25:17.031Z,1016.90
2018-11-13T09:26:17.036Z,1016.91
2018-11-13T09:27:17.026Z,1016.89
2018-11-13T09:28:17.021Z,1016.95
2018-11-13T09:29:17.016Z,1016.96
2018-11-13T09:30:17.203Z,1016.96
2018-11-13T09:31:17.024Z,1016.99
2018-11-13T09:32:17.005Z,1017.00
2018-11-13T09:33:17.005Z,1017.01
2018-11-13T09:34:16.998Z,1017.02
2018-11-13T09:35:17.073Z,1017.00
2018-11-13T09:36:16.987Z,1016.95
2018-11-13T09:37:17.020Z,1016.97
2018-11-13T09:38:16.981Z,1016.97
2018-11-13T09:39:17.021Z,1016.92
2018-11-13T09:40:17.720Z,1016.95
2018-11-13T09:41:16.968Z,1016.95
2018-11-13T09:42:16.972Z,1016.95
2018-11-13T09:43:16.965Z,1016.93
2018-11-13T09:44:16.960Z,1016.94
2018-11-13T09:45:16.961Z,1016.98
2018-11-13T09:46:17.008Z,1016.98
2018-11-13T09:47:16.950Z,1017.06
2018-11-13T09:48:16.949Z,1017.09
2018-11-13T09:49:16.954Z,1017.14
2018-11-13T09:50:16.936Z,1017.13
2018-11-13T09:51:16.937Z,1017.11
2018-11-13T09:52:16.933Z,1017.09
2018-11-13T09:53:16.936Z,1017.11
2018-11-13T09:54:16.927Z,1017.16
2018-11-13T09:55:16.921Z,1017.17
2018-11-13T09:56:16.955Z,1017.22
2018-11-13T09:57:16.912Z,1017.19
2018-11-13T09:58:16.915Z,1017.15
2018-11-13T09:59:16.909Z,1017.14
2018-11-13T10:00:17.106Z,1017.15
2018-11-13T10:01:17.316Z,1017.12
2018-11-13T10:02:17.381Z,1017.15
2018-11-13T10:03:17.538Z,1017.15
2018-11-13T10:04:17.530Z,1017.18
2018-11-13T10:05:16.959Z,1017.23
2018-11-13T10:06:16.887Z,1017.20
2018-11-13T10:07:16.876Z,1017.21
2018-11-13T10:08:16.873Z,1017.20
2018-11-13T10:09:16.868Z,1017.17
2018-11-13T10:10:16.944Z,1017.17
2018-11-13T10:11:16.864Z,1017.18
2018-11-13T10:12:16.868Z,1017.17
2018-11-13T10:13:16.860Z,1017.18
2018-11-13T10:14:16.853Z,1017.25
2018-11-13T10:15:16.853Z,1017.27
2018-11-13T10:16:16.852Z,1017.23
2018-11-13T10:17:16.871Z,1017.26
2018-11-13T10:18:16.988Z,1017.25
2018-11-13T10:19:16.841Z,1017.23
2018-11-13T10:20:16.828Z,1017.22
2018-11-13T10:21:16.827Z,1017.25
2018-11-13T10:22:16.826Z,1017.26
2018-11-13T10:23:16.820Z,1017.29
2018-11-13T10:24:16.823Z,1017.32
2018-11-13T10:25:16.816Z,1017.29
2018-11-13T10:26:16.875Z,1017.28
2018-11-13T10:27:16.816Z,1017.31
2018-11-13T10:28:16.863Z,1017.37
2018-11-13T10:29:16.802Z,1017.31
2018-11-13T10:30:16.798Z,1017.32
2018-11-13T10:31:16.798Z,1017.27
2018-11-13T10:32:16.795Z,1017.29
2018-11-13T10:33:16.787Z,1017.28
2018-11-13T10:34:16.789Z,1017.24
2018-11-13T10:35:16.781Z,1017.25
2018-11-13T10:36:16.781Z,1017.19
2018-11-13T10:37:16.774Z,1017.18
2018-11-13T10:38:16.774Z,1017.16
2018-11-13T10:39:16.765Z,1017.15
2018-11-13T10:40:16.826Z,1017.11
2018-11-13T10:41:16.860Z,1017.12
2018-11-13T10:42:16.756Z,1017.11
2018-11-13T10:43:16.760Z,1017.11
2018-11-13T10:44:16.754Z,1017.13
2018-11-13T10:45:16.752Z,1017.17
2018-11-13T10:46:16.744Z,1017.15
2018-11-13T10:47:16.736Z,1017.16
2018-11-13T10:48:16.741Z,1017.15
2018-11-13T10:49:16.847Z,1017.17
2018-11-13T10:50:16.756Z,1017.14
2018-11-13T10:51:16.728Z,1017.17
2018-11-13T10:52:16.726Z,1017.22
2018-11-13T10:53:16.720Z,1017.25
2018-11-13T10:54:16.717Z,1017.23
2018-11-13T10:55:16.712Z,1017.19
2018-11-13T10:56:16.725Z,1017.17
2018-11-13T10:57:16.706Z,1017.20
2018-11-13T10:58:16.701Z,1017.23
2018-11-13T10:59:16.698Z,1017.29
2018-11-13T11:00:16.697Z,1017.29
2018-11-13T11:01:16.694Z,1017.34
2018-11-13T11:02:16.709Z,1017.36
2018-11-13T11:03:16.683Z,1017.37
2018-11-13T11:04:16.686Z,1017.39
2018-11-13T11:05:16.673Z,1017.40
2018-11-13T11:06:16.681Z,1017.40
2018-11-13T11:07:16.675Z,1017.40
2018-11-13T11:08:16.726Z,1017.37
2018-11-13T11:09:16.667Z,1017.38
2018-11-13T11:10:16.664Z,1017.38
2018-11-13T11:11:16.686Z,1017.38
2018-11-13T11:12:16.659Z,1017.37
2018-11-13T11:13:16.875Z,1017.37
2018-11-13T11:14:16.649Z,1017.38
2018-11-13T11:15:17.245Z,1017.34
2018-11-13T11:16:16.643Z,1017.36
2018-11-13T11:17:16.649Z,1017.37
2018-11-13T11:18:16.730Z,1017.37
2018-11-13T11:19:16.683Z,1017.31
2018-11-13T11:20:16.632Z,1017.29
2018-11-13T11:21:16.680Z,1017.27
2018-11-13T11:22:16.621Z,1017.25
2018-11-13T11:23:16.664Z,1017.32
2018-11-13T11:24:16.754Z,1017.35
2018-11-13T11:25:16.667Z,1017.40
2018-11-13T11:26:16.618Z,1017.45
2018-11-13T11:27:16.612Z,1017.46
2018-11-13T11:28:16.669Z,1017.43
2018-11-13T11:29:16.611Z,1017.44
2018-11-13T11:30:16.617Z,1017.47
2018-11-13T11:31:16.591Z,1017.49
2018-11-13T11:32:16.587Z,1017.46
2018-11-13T11:33:16.583Z,1017.46
2018-11-13T11:34:16.581Z,1017.43
2018-11-13T11:35:16.581Z,1017.42
2018-11-13T11:36:16.580Z,1017.32
2018-11-13T11:37:16.565Z,1017.25
2018-11-13T11:38:16.564Z,1017.23
2018-11-13T11:39:16.645Z,1017.24
2018-11-13T11:40:17.255Z,1017.24
2018-11-13T11:41:16.551Z,1017.22
2018-11-13T11:42:17.257Z,1017.18
2018-11-13T11:43:16.549Z,1017.15
2018-11-13T11:44:16.582Z,1017.14
2018-11-13T11:45:16.542Z,1017.15
2018-11-13T11:46:16.540Z,1017.16
2018-11-13T11:47:16.537Z,1017.18
2018-11-13T11:48:17.255Z,1017.15
2018-11-13T11:49:17.253Z,1017.14
2018-11-13T11:50:16.525Z,1017.18
2018-11-13T11:51:16.522Z,1017.21
2018-11-13T11:52:16.519Z,1017.26
2018-11-13T11:53:16.515Z,1017.32
2018-11-13T11:54:16.508Z,1017.38
2018-11-13T11:55:16.505Z,1017.43
2018-11-13T11:56:16.505Z,1017.43
2018-11-13T11:57:16.502Z,1017.38
2018-11-13T11:58:16.498Z,1017.37
2018-11-13T11:59:16.493Z,1017.33
2018-11-13T12:00:16.493Z,1017.35
2018-11-13T12:01:16.489Z,1017.36
2018-11-13T12:02:16.493Z,1017.40
2018-11-13T12:03:16.482Z,1017.48
2018-11-13T12:04:16.476Z,1017.51
2018-11-13T12:05:16.473Z,1017.50